MMPN

Licenciado y General Ignacio Lopez Rayon Airport

Mexico
TAF MMPN 230414Z 2306/2406 20006KT P6SM SCT250 TEMPO 2311/2315 4SM HZ SCT020 FM231800 18010KT 6SM HZ SCT030 BKN250 FM240500 00000KT P6SM SCT250
Issued Valid From Valid To
Apr-23 @ 04:14 UTC
(5 hours ago)
Apr-23 @ 06:00 UTC
(4 hours ago)
Apr-24 @ 06:00 UTC
(in 20 hours)
Apr-23 @ 06:00 to Apr-23 @ 18:00
TAF MMPN 230414Z 2306/2406 20006KT P6SM SCT250
Wind Visibility Clouds
200° at 6 knots Greater than 6 miles
  • Scattered at 25,000' AGL
Temporary Apr-23 @ 11:00 to Apr-23 @ 15:00
TEMPO 2311/2315 4SM HZ SCT020
Visibility Clouds Conditions
4 miles
  • Scattered at 2,000' AGL
  • Haze
From Apr-23 @ 18:00 to Apr-24 @ 05:00
FM231800 18010KT 6SM HZ SCT030 BKN250
Wind Visibility Clouds Conditions
180° at 10 knots 6 miles
  • Scattered at 3,000' AGL
  • Broken at 25,000' AGL
  • Haze
From Apr-24 @ 05:00 to Apr-24 @ 06:00
FM240500 00000KT P6SM SCT250
Visibility Clouds
Greater than 6 miles
  • Scattered at 25,000' AGL
TAF MMPN 230414Z 2306/2406 20006KT P6SM SCT250 TEMPO 2311/2315 4SM HZ SCT020 FM231800 18010KT 6SM HZ SCT030 BKN250 FM240500 00000KT P6SM SCT250
Issued Apr-23 @ 04:14 UTC
(5 hours ago)
Valid From Apr-23 @ 06:00 UTC
(4 hours ago)
Valid To Apr-24 @ 06:00 UTC
(in 20 hours)
Apr-23 @ 06:00 - Apr-23 @ 18:00
Wind Visibility
200° at 6 knots Greater than 6 miles
Clouds
  • Scattered at 25,000' AGL
Temporary Apr-23 @ 11:00 - Apr-23 @ 15:00
Clouds
  • Scattered at 2,000' AGL
Conditions
  • Haze
From Apr-23 @ 18:00 - Apr-24 @ 05:00
Wind Visibility
180° at 10 knots 6 miles
Clouds
  • Scattered at 3,000' AGL
  • Broken at 25,000' AGL
Conditions
  • Haze
From Apr-24 @ 05:00 - Apr-24 @ 06:00
Clouds
  • Scattered at 25,000' AGL